x

9410840 - Santa Monica Pier (icac1) Weather Station

12:30 - Tue 30th Jun 2015 All times are PDT. -7 hours from GMT.

  • Wind
    10mph, 11mph gusts
  • Sea Temp 70°f
  • Air Temp 67°f
  • Sea Pressure 1012.9mb
  • 9410840 - Santa Monica Pier
  • 9410840 - Santa Monica Pier

More Historic Weather Station data

Upgrade to MSW Pro to gain access to the past 30 days of data for over 8000 Wavebouys and Weather Stations around the globe.

Join Pro

Comparision Forecast

View Surf forecast
   
mar. 06/30 12:30 10 11 mph 1012.9mb 70f 67f
12:24 10 11 mph 1013mb 70f 67f
12:18 9 10 mph 1013mb 70f 67f
12:12 9 10 mph 1012.9mb 70f 67f
12:06 8 9 mph 1012.8mb 70f 67f
12:00 9
mph
1012.9mb 70f 67f
11:54 8 9 mph 1013mb 70f 67f
11:48 7 8 mph 1013mb 69f 67f
11:42 7 8 mph 1013.1mb 69f 67f
11:36 7 8 mph 1013.1mb 69f 67f
11:30 7
mph
1013mb 69f 67f
11:24 6 8 mph 1013mb 69f 67f
11:18 7 8 mph 1012.8mb 69f 67f
11:12 7 8 mph 1012.8mb 69f 67f
11:06 7 8 mph 1012.8mb 68f 67f
11:00 7
mph
1012.9mb 68f 67f
10:54 6 7 mph 1012.9mb 68f 67f
10:48 6
mph
1012.9mb 68f 67f
10:42 5 6 mph 1012.9mb 67f 67f
10:36 5 6 mph 1012.9mb 67f 67f
10:30 5 6 mph 1012.7mb 67f 67f
10:24 5 6 mph 1012.7mb 66f 67f
10:18 5 6 mph 1012.6mb 66f 67f
10:12 5 6 mph 1012.6mb 66f 67f
10:06 5 6 mph 1012.6mb 65f 67f
10:00 5 6 mph 1012.6mb 64f 67f
9:54 6
mph
1012.5mb 64f 67f
9:48 5 6 mph 1012.7mb 62f 67f
9:42 3 5 mph 1012.8mb 63f 67f
9:36 5 6 mph 1012.8mb 64f 67f
9:30 3
mph
1012.9mb 63f 67f
9:24 3 5 mph 1012.9mb 63f 67f
9:18 3
mph
1012.8mb 62f 67f
9:12 3 5 mph 1012.8mb 62f 67f
9:06 5
mph
1012.8mb 62f 67f
9:00 5
mph
1012.8mb 62f 67f
8:54 3
mph
1013mb 62f 67f
8:48 3
mph
1013mb 62f 67f
8:42 3 5 mph 1012.9mb 62f 67f
8:36 3 5 mph 1012.8mb 62f 67f
8:30 3 5 mph 1012.8mb 62f 67f
8:24 2 3 mph 1012.8mb 62f 67f
8:18 2 3 mph 1012.8mb 62f 67f
8:12 2 3 mph 1012.7mb 62f 67f
8:06 2 3 mph 1012.7mb 62f 67f
8:00 1 2 mph 1012.7mb 63f 68f
7:54 2
mph
1012.7mb 63f 67f
7:48 2
mph
1012.7mb 63f 67f
7:42 2
mph
1012.7mb 63f 67f
7:36 2 3 mph 1012.6mb 63f 67f
7:30 2 3 mph 1012.6mb 63f 66f
7:24 3 5 mph 1012.5mb 63f 66f
7:18 3 5 mph 1012.4mb 63f 66f
7:12 5 6 mph 1012.4mb 63f 66f
7:06 3 5 mph 1012.2mb 63f 67f
7:00 3 5 mph 1012.3mb 64f 67f
6:54 3
mph
1012.2mb 64f 67f
6:48 2 3 mph 1012.1mb 64f 67f
6:42 2
mph
1012.1mb 64f 67f
6:36 2
mph
1012.1mb 64f 66f
6:30 1 2 mph 1012mb 64f 66f
6:24 1
mph
1012mb 64f 66f
6:18  -  1 mph 1011.9mb 65f 66f
6:12  -  3 mph 1011.8mb 65f 65f
6:06 3
mph
1011.6mb 65f 65f
6:00 2 3 mph 1011.6mb 65f 65f
5:54 1 2 mph 1011.7mb 65f 65f
5:48 1 2 mph 1011.6mb 65f 65f
5:42  -  1 mph 1011.6mb 65f 65f
5:36  -  mph 1011.7mb 65f 66f
5:30  -  2 mph 1011.7mb 65f 66f
5:24 2 3 mph 1011.7mb 66f 66f
5:18 2 3 mph 1011.6mb 66f 66f
5:12 2 3 mph 1011.7mb 66f 66f
5:06 2 3 mph 1011.6mb 66f 66f
5:00 3
mph
1011.6mb 66f 66f
4:54 3 5 mph 1011.6mb 67f 66f
4:48 3 5 mph 1011.7mb 67f 66f
4:42 2 3 mph 1011.7mb 67f 66f
4:36 2 5 mph 1011.7mb 67f 66f
4:30 3
mph
1011.6mb 67f 66f
4:24 3 5 mph 1011.6mb 67f 66f
4:18 5 6 mph 1011.7mb 67f 66f
4:12 3 5 mph 1011.7mb 67f 66f
4:06 3 5 mph 1011.8mb 67f 66f
4:00 3 5 mph 1011.8mb 68f 66f
3:54 3 5 mph 1011.9mb 68f 66f
3:48 3
mph
1011.8mb 68f 66f
3:42 2 3 mph 1011.9mb 68f 66f
3:36 3 5 mph 1011.9mb 68f 66f
3:30 3
mph
1011.8mb 68f 66f
3:24 1 2 mph 1011.9mb 68f 66f
3:18  -  2 mph 1012mb 68f 66f
3:12 1 2 mph 1011.9mb 68f 66f
3:06 2
mph
1011.9mb 69f 66f
3:00 2
mph
1011.9mb 69f 66f
2:54 2
mph
1011.9mb 69f 67f
2:48 2 3 mph 1011.8mb 69f 66f
2:42 2 3 mph 1011.7mb 69f 66f
2:36 2 5 mph 1011.7mb 69f 66f
2:30 5 6 mph 1011.6mb 69f 66f
2:24 5 6 mph 1011.7mb 69f 66f
2:18 5 6 mph 1011.8mb 69f 67f
2:12 3 5 mph 1012mb 69f 67f
2:06 3 5 mph 1012mb 69f 67f
2:00 2 3 mph 1012mb 69f 67f
1:54 2
mph
1012.1mb 69f 67f
1:48 2 3 mph 1012.1mb 69f 67f
1:42 2 3 mph 1012mb 69f 67f
1:36 3 5 mph 1012mb 69f 67f
1:30 3 5 mph 1012mb 70f 67f
1:24 3
mph
1011.9mb 70f 67f
1:18 2 3 mph 1011.9mb 70f 67f
1:12 1 2 mph 1012mb 70f 67f
1:06  -  mph 1012.1mb 70f 66f
1:00  -  1 mph 1012.3mb 70f 66f
12:54  -  1 mph 1012.4mb 70f 66f
12:48  -  2 mph 1012.3mb 70f 66f
12:42 2 3 mph 1012.4mb 70f 67f
12:36 3 5 mph 1012.4mb 70f 67f
12:30 5 6 mph 1012.4mb 70f 67f
12:24 5 6 mph 1012.5mb 70f 67f
12:18 5 6 mph 1012.6mb 70f 66f
12:12 5 6 mph 1012.7mb 70f 66f
12:06 5 6 mph 1012.6mb 70f 66f
12:00 3 5 mph 1012.8mb 70f 66f
lun. 06/29 11:54 2 3 mph 1012.8mb 70f 66f
11:48 2 3 mph - 70f -
11:42 1 3 mph - 70f -
11:36 2 3 mph - 70f -
11:30 2 3 mph 1013mb 70f 67f
11:24 3 5 mph 1013mb 70f 67f
11:18 2 5 mph 1013.2mb 70f 66f
11:12 3 6 mph 1013.2mb 70f 66f
11:06 3 6 mph 1013.2mb 70f 67f
11:00 6 8 mph 1013mb 70f 66f
10:54 3 5 mph 1013.2mb 70f 66f
10:48 3 5 mph 1013.2mb 70f 66f
10:42 3
mph
1013.3mb 70f 66f
10:36 3
mph
1013.2mb 69f 66f
10:30 2 3 mph 1013.1mb 69f 66f
10:24 3 5 mph 1013mb 69f 66f
10:18 5
mph
1012.9mb 69f 66f
10:12 3 5 mph 1012.9mb 69f 66f
10:06 2 5 mph 1012.9mb 69f 66f
10:00 5 6 mph 1012.7mb 69f 65f
9:54 5
mph
1012.7mb 69f 66f
9:48 2 3 mph 1012.6mb 69f 66f
9:42 1 2 mph 1012.5mb 69f 66f
9:36 2 3 mph 1012.4mb 69f 66f
9:30 2 3 mph 1012.6mb 69f 66f
9:24 2 3 mph 1012.6mb 69f 65f
9:18 1 2 mph 1012.5mb 69f 65f
9:12  -  2 mph 1012.4mb 69f 65f
9:06 2 5 mph 1012.3mb 69f 66f
9:00 3
mph
1012.1mb 69f 66f
8:54 3
mph
1012.1mb 69f 66f
8:48 3 5 mph 1012.1mb 69f 65f
8:42 5 6 mph 1012.1mb 69f 65f
8:36 3 5 mph 1012mb 69f 65f
8:30 2 3 mph 1012.1mb 69f 66f
8:24 2 5 mph 1012.1mb 69f 66f
8:18 3 5 mph 1012mb 69f 66f
8:12 5 6 mph 1011.9mb 69f 66f
8:06 5 6 mph 1011.7mb 70f 66f
8:00 3 6 mph 1011.6mb 69f 66f
7:54 5
mph
1011.5mb 69f 66f
7:48 3 5 mph 1011.6mb 70f 66f
7:42 3 5 mph 1011.6mb 69f 66f
7:36 3
mph
1011.5mb 69f 67f
7:30 3
mph
1011.5mb 69f 67f
7:24 3 5 mph 1011.4mb 69f 67f
7:18 3 6 mph 1011.4mb 69f 67f
7:12 6 8 mph 1011.3mb 69f 67f
7:06 8
mph
1011.2mb 69f 66f
7:00 7 8 mph 1011.3mb 69f 66f
6:54 7 8 mph 1011.3mb 69f 67f
6:42 7 8 mph 1011.3mb 69f 67f
6:36 6 7 mph 1011.4mb 69f 67f
6:30 5
mph
1011.5mb 69f 67f
6:24 5
mph
1011.6mb 69f 67f
6:18 3 6 mph 1011.6mb 69f 67f
6:12 5 6 mph 1011.6mb 69f 67f
6:06 6
mph
1011.6mb 69f 67f
6:00 6 7 mph 1011.6mb 69f 67f
5:48 3 5 mph 1011.6mb 69f 67f
5:42 3 6 mph 1011.6mb 69f 67f
5:36 5 7 mph 1011.6mb 69f 67f
5:30 6 7 mph 1011.5mb 69f 67f
5:24 5 7 mph 1011.5mb 69f 67f
5:18 6 9 mph 1011.5mb 69f 67f
5:12 8 9 mph 1011.5mb 69f 67f
5:06 7 10 mph 1011.5mb 69f 67f
5:00 9 11 mph 1011.4mb 70f 67f
4:54 11 13 mph 1011.3mb 69f 67f
4:48 10 13 mph 1011.5mb 69f 67f
4:42 10 11 mph 1011.7mb 69f 67f
4:36 10 11 mph 1011.6mb 69f 66f
4:30 10 13 mph 1011.7mb 69f 66f
4:24 10 11 mph 1011.7mb 69f 66f
4:18 10 11 mph 1011.8mb 69f 66f
4:12 9 10 mph 1011.9mb 69f 66f
4:06 9 10 mph 1011.9mb 70f 66f
4:00 9
mph
1011.9mb 70f 66f
3:54 8 9 mph 1012mb 70f 66f
3:48 8 10 mph 1012mb 70f 66f
3:42 10 11 mph 1012.1mb 70f 65f
3:36 11 13 mph 1012.2mb 70f 66f
3:30 11 13 mph 1012.3mb 70f 66f
3:24 11 13 mph 1012.4mb 70f 65f
3:18 11 13 mph 1012.4mb 70f 66f
3:12 10 13 mph 1012.3mb 70f 66f
3:06 13 14 mph 1012.2mb 70f 66f
3:00 11 13 mph 1012.2mb 70f 66f
2:54 13
mph
1012.3mb 70f 66f
2:48 11 13 mph 1012.2mb 70f 66f
2:42 11 13 mph 1012.2mb 70f 66f
2:36 11 13 mph 1012.2mb 70f 66f
2:30 11 13 mph 1012.1mb 70f 66f
2:24 11 13 mph 1012.2mb 70f 66f
2:18 13 14 mph 1012.2mb 70f 66f
2:12 13 14 mph 1012.3mb 70f 66f
2:06 13 14 mph 1012.4mb 70f 66f
2:00 11
mph
1012.4mb 70f 67f
1:54 10 11 mph 1012.6mb 70f 67f
1:48 9 10 mph 1012.7mb 70f 67f
1:42 8 10 mph 1012.8mb 70f 67f
1:36 9
mph
1012.8mb 70f 67f
1:30 8
mph
1012.8mb 70f 68f
1:24 6 7 mph 1012.9mb 70f 68f
1:18 7 8 mph 1012.9mb 70f 68f
1:12 7 8 mph 1012.8mb 70f 67f
1:06 7
mph
1012.8mb 70f 67f
1:00 7 8 mph 1012.9mb 69f 68f
12:54 7 8 mph 1012.8mb 69f 67f
12:48 8
mph
1012.8mb 70f 67f
12:42 7 8 mph 1012.9mb 69f 67f
12:36 7
mph
1013mb 69f 67f
12:30 6 7 mph 1013.1mb 69f 67f
12:24 7 8 mph 1013.1mb 69f 67f
12:18 6 7 mph 1013.1mb 69f 67f
12:12 6 7 mph 1013.1mb 69f 67f
12:06 6 7 mph 1013.2mb 69f 67f
12:00 6 8 mph 1013.2mb 69f 67f
11:54 6 7 mph 1013.2mb 69f 67f
11:48 6 7 mph 1013.1mb 69f 67f
11:42 5 6 mph 1013.2mb 69f 67f
11:36 5 6 mph 1013.2mb 69f 67f
11:30 5 6 mph 1013.2mb 69f 67f
11:24 3 6 mph 1013.1mb 69f 67f
11:18 5
mph
1013.1mb 69f 67f
11:12 5 6 mph 1013.2mb 69f 67f
11:06 6
mph
1013.1mb 69f 67f
11:00 6
mph
1013.1mb 69f 67f
10:54 5 6 mph 1013.1mb 69f 67f
10:48 6
mph
1013.2mb 69f 67f
10:42 6 7 mph 1013.1mb 69f 67f
10:36 6 7 mph 1013mb 69f 67f
10:30 6
mph
1013mb 69f 67f
10:24 5 7 mph 1013.1mb 69f 68f
10:18 6 7 mph 1012.9mb 69f 67f
10:12 6
mph
1012.9mb 69f 67f
10:06 5
mph
1012.9mb 69f 68f
10:00 3
mph
1012.9mb 69f 68f
9:54 2
mph
1013mb 69f 68f
9:48 1 2 mph 1012.9mb 69f 68f
9:42 2 3 mph 1012.9mb 69f 67f
9:36 3
mph
1012.8mb 69f 67f
9:30 3 5 mph 1012.8mb 69f 67f
9:24 3
mph
1012.9mb 69f 67f
9:18 3 5 mph 1012.9mb 68f 67f
9:12 5
mph
1012.9mb 68f 67f
9:06 3 5 mph 1013mb 68f 67f
9:00 3 5 mph 1013mb 68f 67f
8:54 5
mph
1013.1mb 68f 67f
8:48 3 5 mph 1013mb 68f 67f
8:42 3
mph
1013mb 68f 67f
8:36 2 3 mph 1013mb 68f 67f
8:30 3 5 mph 1013mb 68f 67f
8:24 3
mph
1012.9mb 68f 67f
8:18 3
mph
1012.9mb 68f 67f
8:12 3
mph
1012.9mb 68f 67f
8:06 3
mph
1013mb 68f 67f
8:00 3 5 mph 1012.9mb 68f 67f
7:54 2 3 mph 1012.9mb 68f 67f
7:48 3
mph
1012.9mb 68f 67f
7:42 3 5 mph 1012.9mb 68f 67f
7:36 3
mph
1012.9mb 68f 67f
7:30 3 5 mph 1012.7mb 68f 67f
7:24 3 5 mph 1012.6mb 68f 67f
7:18 3 5 mph 1012.5mb 68f 68f
7:12 3 5 mph 1012.5mb 68f 68f
7:06 2 3 mph 1012.4mb 68f 68f
7:00 2 3 mph 1012.5mb 68f 68f
6:54 2
mph
1012.4mb 68f 69f
6:48 3
mph
1012.4mb 68f 69f
6:42 1 2 mph 1012.4mb 68f 69f
6:36 1
mph
1012.4mb 68f 68f
6:30  -  2 mph 1012.3mb 68f 67f
6:24 1 2 mph 1012.3mb 68f 67f
6:18 2 3 mph 1012.3mb 68f 67f
6:12 3
mph
1012.3mb 68f 66f
6:06 3 5 mph 1012.3mb 68f 66f
6:00 3
mph
1012.2mb 68f 66f
5:54 3 5 mph 1012.1mb 68f 66f
5:48 3 5 mph 1012.1mb 68f 66f
5:42 3 5 mph 1012mb 68f 66f
5:36 3 5 mph 1011.8mb 68f 66f
5:30 5 6 mph 1011.8mb 68f 66f
5:24 5 6 mph 1011.7mb 68f 66f
5:18 6
mph
1011.6mb 68f 66f
5:12 5
mph
1011.4mb 68f 66f
5:06 5 6 mph 1011.4mb 68f 66f
5:00 6
mph
1011.4mb 68f 66f
4:54 5
mph
1011.2mb 68f 66f
4:48 5 6 mph 1011.2mb 68f 66f
4:42 6
mph
1011.3mb 68f 67f
4:36 3 5 mph 1011.3mb 68f 66f
4:30 5
mph
1011.4mb 68f 66f
4:24 5
mph
1011.4mb 68f 66f
4:18 5
mph
1011.5mb 68f 66f
4:12 3 5 mph 1011.4mb 68f 66f
4:06 3 5 mph 1011.4mb 68f 66f
4:00 3 5 mph 1011.4mb 68f 67f
3:54 3 6 mph 1011.3mb 68f 66f
3:48 5 6 mph 1011.3mb 68f 66f
3:42 6 7 mph 1011.4mb 68f 66f
3:36 6 7 mph 1011.5mb 68f 67f
3:30 5 6 mph 1011.5mb 68f 67f
3:24 6 8 mph 1011.5mb 68f 67f
3:18 7 9 mph 1011.5mb 68f 67f
3:12 9 10 mph 1011.6mb 68f 67f
3:06 9 10 mph 1011.6mb 68f 67f
3:00 9
mph
1011.6mb 68f 67f
2:54 9 10 mph 1011.4mb 68f 67f
2:48 9 10 mph 1011.5mb 68f 67f
2:42 9 10 mph 1011.4mb 68f 67f
2:36 9 10 mph 1011.4mb 68f 67f
2:30 9
mph
1011.4mb 68f 67f
2:24 7 8 mph 1011.3mb 68f 67f
2:18 7 8 mph 1011.4mb 68f 68f
2:12 6
mph
1011.4mb 68f 69f
2:06 3 6 mph 1011.5mb 68f 69f
2:00 3 6 mph 1011.5mb 68f 69f
1:54 6 7 mph 1011.6mb 68f 69f
1:48 6 7 mph 1011.7mb 68f 69f
1:42 7 8 mph 1011.7mb 68f 69f
1:36 6 7 mph 1011.6mb 68f 69f
1:30 6 7 mph 1011.6mb 68f 69f
1:24 7 8 mph 1011.6mb 68f 69f
1:18 7 10 mph 1011.6mb 68f 69f
1:12 9 11 mph 1011.6mb 68f 69f
1:06 8 10 mph 1011.7mb 68f 69f
1:00 9 10 mph 1011.7mb 68f 69f
12:54 8 10 mph 1011.7mb 68f 69f
12:48 8 9 mph 1011.7mb 68f 69f
12:42 8 9 mph 1011.8mb 68f 68f
12:36 6 7 mph 1011.9mb 68f 68f
12:30 6 10 mph 1012mb 68f 68f
12:24 9 10 mph 1012mb 68f 68f
12:18 9 10 mph 1012mb 68f 68f
12:12 6 7 mph 1012mb 68f 68f
12:06 7 8 mph 1012.3mb 68f 68f
12:00 3 6 mph 1012.1mb 68f 68f
dim. 06/28 11:54 7 9 mph 1012mb 68f 68f
11:48 8 11 mph - - 68f
11:42 14 18 mph - - 68f
11:36 18 21 mph - - 68f
11:30 9 10 mph - 68f 69f
11:24 6 7 mph - 68f 70f
11:18 5 14 mph - - -
11:12 14
mph
- - -
11:06 5
mph
- - -
11:00 6 10 mph 1011.5mb 68f 71f
10:54 9 15 mph 1011.7mb 68f 71f
10:48 15 17 mph 1011.7mb 68f 71f
10:42 10 11 mph 1011.6mb 68f 71f
10:36 6 10 mph 1011.5mb 68f 71f
10:30 10
mph
1011.7mb 68f 71f
10:24 2 3 mph 1011.5mb 68f 71f
10:18 3 5 mph 1011.5mb 68f 71f
10:12 6 14 mph 1011.6mb 69f 71f
10:06 13 15 mph 1012mb 69f 71f
10:00 11 15 mph 1012mb 69f 71f
9:54 10 13 mph 1011.7mb 69f 71f
9:48 10 11 mph 1011.5mb 69f 70f
9:42 9 13 mph 1011.4mb 69f 70f
9:36 11 14 mph 1011.5mb 69f 70f
9:30 10 13 mph 1011.4mb 69f 70f
9:24 9 10 mph 1011.2mb 69f 70f
9:18 8 13 mph 1011.1mb 69f 70f
9:12 11 18 mph 1011.2mb 69f 70f
9:06 13 15 mph 1011.2mb 69f 70f
9:00 13 15 mph 1011.1mb 69f 70f
8:54 9 11 mph 1010.9mb 69f 71f
8:48 6 9 mph 1010.7mb 69f 71f
8:42 8 9 mph 1010.7mb 69f 71f
8:36 9 10 mph 1010.6mb 69f 71f
8:30 7 8 mph 1010.6mb 69f 71f
8:24 8 10 mph 1010.5mb 69f 71f
8:18 8 9 mph 1010.5mb 69f 71f
8:12 6 9 mph 1010.4mb 69f 71f
8:06 7 9 mph 1010.5mb 69f 70f
8:00 8 11 mph 1010.4mb 69f 70f
7:54 8 11 mph 1010.4mb 69f 70f
7:48 9 11 mph 1010.4mb 69f 70f
7:42 9 11 mph 1010.4mb 69f 70f
7:36 9 10 mph 1010.3mb 69f 70f
7:30 9 10 mph 1010.3mb 69f 69f
7:24 9 10 mph 1010.2mb 69f 69f
7:18 8 9 mph 1010.2mb 69f 69f
7:12 8 10 mph 1010.1mb 69f 69f
7:06 10 13 mph 1010.1mb 68f 68f
7:00 11 13 mph 1010mb 68f 68f
6:54 11 13 mph 1010.1mb 68f 68f
6:48 10 11 mph 1010.1mb 68f 68f
6:42 9 10 mph 1010.1mb 68f 68f
6:36 8 9 mph 1010.2mb 68f 68f
6:30 7 8 mph 1010.3mb 68f 67f
6:24 7 8 mph 1010.4mb 68f 67f
6:18 6 7 mph 1010.5mb 68f 67f
6:12 6
mph
1010.6mb 68f 67f
6:06 5 6 mph 1010.6mb 68f 67f
6:00 3 5 mph 1010.6mb 67f 66f
5:54 5 6 mph 1010.6mb 67f 66f
5:48 6 7 mph 1010.7mb 67f 66f
5:42 5 6 mph 1010.8mb 67f 66f
5:36 5 6 mph 1011mb 67f 66f
5:30 6
mph
1011mb 67f 65f
5:24 6 7 mph 1011.1mb 67f 65f
5:18 6 7 mph 1011.2mb 67f 65f
5:12 6 8 mph 1011.4mb 67f 65f
5:06 8 11 mph 1011.5mb 67f 65f
5:00 10 11 mph 1011.5mb 67f 65f
4:54 11 13 mph 1011.7mb 66f 65f
4:48 10 13 mph 1011.7mb 66f 65f
4:42 11 14 mph 1011.8mb 66f 65f
4:36 11 13 mph 1011.8mb 66f 65f
4:30 13 15 mph 1011.8mb 67f 66f
4:24 13 16 mph 1011.8mb 67f 66f
4:18 13 14 mph 1011.8mb 67f 66f
4:12 11 13 mph 1011.9mb 67f 67f
4:06 9 11 mph 1012mb 67f 67f
4:00 9 13 mph 1012.1mb 68f 67f
3:54 13 16 mph 1012.2mb 67f 67f
3:48 15 18 mph 1012.2mb 68f 67f
3:42 16 20 mph 1012.3mb 68f 67f
3:36 17 20 mph 1012.4mb 68f 67f
3:30 16 18 mph 1012.5mb 68f 67f
3:24 16 20 mph 1012.6mb 68f 67f
3:18 16 20 mph 1012.7mb 68f 67f
3:12 16 17 mph 1012.7mb 68f 66f
3:06 16 18 mph 1012.8mb 68f 66f
3:00 16 18 mph 1012.8mb 68f 67f
2:54 16 17 mph 1012.8mb 68f 67f
2:48 13 15 mph 1012.9mb 68f 67f
2:42 14
mph
1012.9mb 68f 67f
2:36 13 14 mph 1012.9mb 69f 67f
2:30 11 13 mph 1013mb 69f 67f
2:24 5
mph
1013.2mb 69f 68f
2:18 2 5 mph 1013.3mb 69f 67f
2:12 3 6 mph 1013.4mb 69f 66f
2:06 6 7 mph 1013.4mb 69f 66f
2:00 7 9 mph 1013.5mb 69f 66f
1:54 7 8 mph 1013.6mb 69f 65f
1:48 7 9 mph 1013.7mb 69f 65f
1:42 8 10 mph 1013.7mb 69f 65f
1:36 9 10 mph 1013.7mb 69f 66f
1:30 9 10 mph 1013.7mb 69f 65f
1:24 9 10 mph 1013.7mb 69f 65f
1:18 8 9 mph 1013.7mb 69f 66f
1:12 8
mph
1013.8mb 69f 66f
1:06 7 8 mph 1014mb 69f 66f
1:00 7 8 mph 1013.9mb 69f 66f
12:54 6 8 mph 1013.9mb 69f 66f
12:48 7 9 mph 1013.9mb 69f 66f
12:42 7 8 mph 1014mb 69f 66f
12:36 8 10 mph 1014mb 69f 66f
12:30 8 9 mph 1014mb 69f 66f
12:24 9 10 mph 1014mb 69f 66f
12:18 9 10 mph 1014.1mb 69f 66f
12:12 9 11 mph 1014.1mb 69f 66f
12:06 10 11 mph 1014.1mb 69f 66f
12:00 9 10 mph 1014.1mb 69f 66f
11:54 10 11 mph 1014.2mb 69f 66f
11:48 9 10 mph 1014.1mb 69f 66f
11:42 8 10 mph 1014.1mb 69f 66f
11:36 9
mph
1014.1mb 69f 66f
11:30 9 11 mph 1014.1mb 69f 66f
11:24 10 11 mph 1014mb 69f 67f
11:18 7 8 mph 1014.1mb 69f 67f
11:12 7
mph
1014.2mb 69f 67f
11:06 6
mph
1014.2mb 69f 67f
11:00 5 6 mph 1014.3mb 68f 66f
10:54 6 7 mph 1014.2mb 68f 66f
10:48 6 7 mph 1014.2mb 68f 66f
10:42 6 7 mph 1014.1mb 68f 66f
10:36 6 7 mph 1014.1mb 68f 65f
10:30 7 8 mph 1014.1mb 68f 65f
10:24 6 7 mph 1014.1mb 68f 66f
10:18 6
mph
1014.3mb 68f 65f
10:12 5
mph
1014.4mb 68f 65f
10:06 5
mph
1014.3mb 68f 65f
10:00 5 6 mph 1014.3mb 68f 65f
9:54 3 5 mph 1014.4mb 68f 65f
9:48 5 6 mph 1014.3mb 68f 65f
9:42 5 6 mph 1014.3mb 68f 65f
9:36 3 5 mph 1014.4mb 68f 65f
9:30 5 7 mph 1014.5mb 68f 65f
9:24 7 8 mph 1014.4mb 68f 65f
9:18 8 9 mph 1014.2mb 68f 65f
9:12 8 9 mph 1014.2mb 68f 65f
9:06 8
mph
1014.4mb 68f 65f
9:00 7
mph
1014.4mb 68f 65f
8:54 6 7 mph 1014.4mb 68f 66f
8:48 5
mph
1014.2mb 68f 66f
8:42 3 5 mph 1014.2mb 68f 66f
8:36 5
mph
1014.1mb 68f 66f
8:30 3 5 mph 1014mb 68f 67f
8:24 2 3 mph 1013.8mb 68f 67f
8:18 2
mph
1013.9mb 68f 67f
8:12 2
mph
1013.8mb 68f 67f
8:06 2 3 mph 1013.7mb 67f 67f
8:00 3
mph
1013.8mb 67f 66f
7:54 3
mph
1013.8mb 67f 66f
7:48 3
mph
1013.9mb 67f 66f
7:42 3 5 mph 1013.9mb 67f 66f
7:36 3 6 mph 1013.7mb 67f 66f
7:30 6
mph
1013.6mb 67f 66f
7:24 5
mph
1013.7mb 67f 66f
7:18 5 6 mph 1013.7mb 67f 66f
7:12 5
mph
1013.7mb 67f 66f
7:06 3
mph
1013.8mb 67f 66f
7:00  -  1 mph 1013.8mb 67f 66f
6:54  -  1 mph 1013.8mb 67f 66f
6:48  -  2 mph 1013.6mb 67f 66f
6:42 2
mph
1013.6mb 67f 66f
6:36 2 5 mph 1013.3mb 67f 66f
6:30 3 5 mph 1013mb 67f 66f
6:24 2 3 mph 1013mb 67f 66f
6:18 3 6 mph 1013.1mb 67f 66f
6:12 6 7 mph 1012.8mb 67f 66f
6:06 3 5 mph 1012.9mb 67f 66f
6:00 1 2 mph 1013.1mb 67f 66f
5:54 1 2 mph 1013mb 67f 66f
5:48 2
mph
1013mb 67f 66f
5:42 2 3 mph 1012.9mb 67f 66f
5:36  -  3 mph 1012.9mb 67f 66f
5:30 3
mph
1012.7mb 67f 66f
5:24 1 2 mph 1012.5mb 67f 66f
5:18 1 3 mph 1012.5mb 67f 66f
5:12 3
mph
1012.4mb 67f 66f
5:06 3 5 mph 1012.4mb 67f 66f
5:00 3
mph
1012.4mb 67f 66f
4:54 2 5 mph 1012.5mb 66f 66f
4:48 5
mph
1012.5mb 66f 66f
4:42 3
mph
1012.5mb 67f 66f
4:36 2 3 mph 1012.8mb 67f 66f
4:30 2 3 mph 1012.8mb 67f 66f
4:24 3 5 mph 1012.5mb 67f 66f
4:18 2
mph
1012.7mb 66f 66f
4:12  -  1 mph 1012.7mb 66f 66f
4:06 1 3 mph 1012.9mb 66f 66f
4:00 3 5 mph 1012.6mb 66f 66f
3:54 1
mph
1012.7mb 66f 66f
3:48  -  2 mph 1012.8mb 66f 66f
3:42 1 3 mph 1012.8mb 66f 66f
3:36 2 3 mph 1012.8mb 66f 66f
3:30  -  2 mph 1012.9mb 66f 66f
3:24 1 2 mph 1012.9mb 66f 66f
3:18  -  2 mph 1012.9mb 66f 66f
3:12 1 2 mph 1013mb 66f 66f
3:06 2 3 mph 1012.9mb 66f 66f
3:00 1
mph
- - 66f
2:54  -  2 mph - - 66f
2:48  -  mph 1013.2mb 66f -
2:42  -  mph 1013mb 66f -
2:36  -  mph 1013mb 66f -
2:30  -  mph 1012.7mb 66f -
2:24  -  mph 1012.6mb 66f -
2:18  -  mph - - 66f
2:12  -  mph - - 66f
2:06  -  mph - - 66f
2:00 1 3 mph 1013.1mb 66f 66f
1:54 3 5 mph 1012.9mb 66f 66f
1:48 3
mph
1012.9mb 66f 66f
1:42 3 6 mph 1013mb 66f 66f
1:36 6
mph
1013.1mb 66f 66f
1:30 6 7 mph 1013.1mb 66f 66f
1:24 3 5 mph 1012.7mb 66f 66f
1:18 3 6 mph 1012.9mb 67f 66f
1:12 6
mph
1012.8mb 67f 66f
1:06 2 3 mph 1012.8mb 67f 66f
1:00 3 6 mph 1012.7mb 67f 66f
12:54 5 6 mph 1012.8mb 67f 66f
12:48 1 6 mph 1013mb 67f 66f
12:42 5 6 mph 1013.1mb 67f 66f
12:36 5 6 mph 1013.1mb 67f 66f
12:30 6 9 mph 1013mb 67f 66f
12:24 7 9 mph 1012.8mb 67f 66f
12:18 6 7 mph 1012.7mb 67f 65f
12:12 6 7 mph 1012.8mb 67f 65f
12:06 5 6 mph 1012.9mb 67f 65f
12:00 6 9 mph 1012.9mb - 65f
sam. 06/27 11:54 7 8 mph 1013.1mb - 65f
11:48 5 6 mph 1013.1mb 67f 65f
11:42 7 10 mph 1013.3mb 67f 65f
11:36 9 11 mph 1013.6mb 67f 65f
11:30 8
mph
1013.6mb 68f 66f
11:24 6 7 mph 1013.4mb 68f 66f
11:18 7 8 mph - - 65f
11:12 5 6 mph - - 65f
11:06 3
mph
- - 65f
11:00 2 5 mph 1013.8mb 68f 65f
10:54 3 5 mph 1013.9mb 68f 65f
10:48 3 5 mph 1013.8mb 68f 65f
10:42 3 5 mph 1013.7mb 68f 65f
10:36 3 5 mph 1013.6mb 68f 65f
10:30 3 5 mph 1013.5mb 68f 65f
10:24 5 6 mph 1013.5mb 68f 65f
10:18 5 6 mph 1013.4mb 67f 65f
10:12 3 5 mph 1013.2mb 67f 65f
10:06 3 7 mph 1013.2mb 68f 65f
10:00 5
mph
1013.3mb 67f 65f
9:54 3 5 mph 1013.2mb 67f 65f
9:48 3 6 mph 1013mb 68f 65f
9:42 5
mph
1012.9mb 68f 65f
9:36 1 3 mph 1012.6mb 68f 65f
9:30 3 5 mph 1012.6mb 68f 65f
9:24 5
mph
1012.7mb 68f 65f
9:18 5 7 mph 1012.8mb 68f 65f
9:12 6 7 mph 1012.9mb 68f 65f
9:06 6 7 mph 1012.9mb 69f 66f
9:00 6 7 mph 1012.8mb 69f 66f
8:54 7 9 mph 1012.9mb 69f 66f
8:48 7 8 mph 1013.1mb 69f 66f
8:42 5 6 mph 1013mb 69f 66f
8:36 2 3 mph 1012.9mb 69f 66f
8:30 3 8 mph 1012.7mb 69f 66f
8:24 5 7 mph 1013.1mb 69f 66f
8:18 8 13 mph 1013.1mb 69f 66f
8:12 7 9 mph 1013.3mb 69f 66f
8:06 5 6 mph 1012.4mb 69f 65f
8:00  -  1 mph 1013.1mb 69f 65f
7:54 2 3 mph 1013.4mb 69f 65f
7:48  -  6 mph 1013.3mb 69f 65f
7:42 8 10 mph 1013.8mb 69f 65f
7:36 1 3 mph 1013.7mb 69f 65f
7:30 3 5 mph 1013.6mb 69f 65f
7:24 1 6 mph 1013.4mb 69f 65f
7:18 6 7 mph 1013.7mb 69f 65f
7:12 3 5 mph 1013.5mb 69f 65f
7:06 3
mph
1013.5mb 69f 65f
7:00 3
mph
1013.4mb 69f 65f
6:54 2 5 mph 1013.2mb 69f 65f
6:48 2
mph
1013.1mb 69f 65f
6:42 2 7 mph 1013mb 69f 64f
6:36 6 7 mph 1013.1mb 69f 64f
6:30 5 7 mph 1013mb 69f 64f
6:24 5 7 mph 1013mb 69f 64f
6:18 5 7 mph 1012.9mb 69f 64f
6:12 7
mph
1013mb 69f 64f
6:06 5 8 mph 1013.1mb 69f 64f
6:00 5 9 mph 1013.3mb 69f 64f
5:54 10 13 mph 1013.1mb 69f 64f
5:48 9 10 mph 1013.4mb 69f 64f
5:42 2 3 mph 1014.7mb 69f 64f
5:12 7 8 mph 1015.5mb 69f 64f
5:06 8 9 mph 1015.5mb 69f 64f
5:00 8 10 mph 1015.5mb 69f 64f
4:54 9 11 mph 1015.4mb 69f 64f
4:48 9 11 mph 1015.3mb 69f 64f
4:42 9 11 mph 1015.1mb 69f 64f
4:36 11 13 mph 1014.9mb 69f 64f
4:30 11 13 mph 1014.8mb 69f 64f
4:24 10 13 mph 1014.7mb 69f 64f
4:18 11 13 mph 1014.8mb 69f 65f
4:12 11 13 mph 1014.7mb 69f 64f
4:06 11 13 mph 1014.6mb 69f 64f
4:00 9 14 mph 1014.6mb 69f 64f
3:54 11 14 mph 1014.5mb 69f 64f
3:48 13 15 mph 1014.4mb 69f 64f
3:42 13 15 mph 1014.4mb 69f 64f
3:36 15 16 mph 1014.5mb 69f 64f
3:30 11 15 mph 1014.3mb 69f 65f
3:24 11 15 mph 1014.5mb 69f 65f
3:18 15 21 mph 1014.5mb 69f 65f
3:12 16 20 mph 1014.2mb 69f 65f
3:06 14 17 mph 1014.2mb 69f 65f
3:00 15 18 mph 1014.4mb 69f 65f
2:54 16 18 mph 1014.1mb 69f 65f
2:48 18 21 mph 1014mb 69f 65f
2:42 18 20 mph 1014mb 69f 65f
2:36 17 20 mph 1014.1mb 69f 65f
2:30 17 21 mph 1014.2mb 69f 65f
2:24 16 18 mph 1014.4mb 69f 65f
2:18 16 18 mph 1014.5mb 69f 64f
2:12 16 18 mph 1014.4mb 69f 65f
2:06 15 17 mph 1014.5mb 69f 65f
2:00 16 18 mph 1014.5mb 69f 65f
1:54 16 17 mph 1014.4mb 69f 65f
1:48 15 17 mph 1014.5mb 69f 65f
1:42 17 18 mph 1014.4mb 69f 65f
1:36 16 17 mph 1014.5mb 69f 64f
1:30 16 17 mph 1014.3mb 69f 64f
1:24 7 9 mph 1015.3mb 69f 65f
1:18 10 16 mph 1015.6mb 68f 65f
1:12 16 18 mph 1015.3mb 68f 65f
1:06 15 16 mph 1015.6mb 68f 65f
1:00 11
mph
1016.3mb 68f 65f
12:54 9
mph
1016.7mb 68f 65f
12:48 6
mph
1017.2mb 68f 65f
12:42 5
mph
1017.5mb 68f 65f
12:36 3 6 mph 1017.6mb 68f 65f
12:30 5
mph
1017.7mb 68f 65f
12:24 3 6 mph 1017.7mb 68f 65f
12:18 6
mph
1017.5mb 68f 65f
12:12 5
mph
1017.6mb 68f 65f
12:06 5
mph
1017.5mb 68f 65f
12:00 3
mph
1017.5mb 69f 65f
11:54 3 5 mph 1017.5mb 69f 65f
11:48 5 6 mph 1017.2mb 69f 65f
11:42 6 7 mph 1017.1mb 69f 65f
11:36 6 7 mph 1016.9mb 69f 65f
11:30 7 8 mph 1016.8mb 68f 65f
11:24 8 9 mph 1016.7mb 68f 64f
11:18 8 9 mph 1016.7mb 68f 64f
11:12 8 9 mph 1016.8mb 68f 64f
11:06 8 9 mph 1016.8mb 68f 64f
11:00 9 10 mph 1016.7mb 68f 64f
10:54 8 10 mph 1016.6mb 69f 64f
10:48 9 10 mph 1016.5mb 69f 63f
10:42 9 10 mph 1016.3mb 69f 63f
10:36 10 11 mph 1016.4mb 69f 63f
10:30 10 11 mph 1016.4mb 69f 63f
10:24 11
mph
1016.3mb 69f 63f
10:18 10 11 mph 1016.3mb 69f 63f
10:12 11 13 mph 1016.4mb 69f 64f
10:06 13 14 mph 1016.3mb 69f 64f
10:00 13
mph
1016.4mb 69f 64f
9:54 11 13 mph 1016.2mb 69f 64f
9:48 11 13 mph 1016mb 69f 64f
9:42 11 13 mph 1016.1mb 69f 64f
9:36 10
mph
1016.1mb 69f 64f
9:30 9 10 mph 1016.2mb 69f 65f
9:24 9
mph
1016.3mb 69f 65f
9:18 8 9 mph 1016.4mb 69f 65f
9:12 7 8 mph 1016.5mb 69f 65f
9:06 7 8 mph 1016.4mb 69f 65f
9:00 6 7 mph 1016.4mb 69f 65f
8:54 6 7 mph 1016.6mb 69f 65f
8:48 6 7 mph 1016.6mb 69f 65f
8:42 6 7 mph 1016.5mb 69f 65f
8:36 6
mph
1016.4mb 69f 65f
8:30 5 6 mph 1016.5mb 69f 65f
8:24 5 6 mph 1016.5mb 69f 65f
8:18 5
mph
1016.5mb 69f 65f
8:12 3 5 mph 1016.4mb 69f 65f
8:06 3 5 mph 1016.3mb 69f 65f
8:00 5
mph
1016.3mb 69f 65f
7:54 2 3 mph 1016.4mb 69f 65f
7:48 3
mph
1016.3mb 69f 65f
7:42 2 5 mph 1016.3mb 69f 65f
7:36 3 5 mph 1016.2mb 69f 65f
7:30 2 5 mph 1016.1mb 69f 65f
7:24 3 5 mph 1016.1mb 69f 65f
7:18 3 5 mph 1016mb 69f 65f
7:12 1 3 mph 1016mb 69f 65f
7:06 2 3 mph 1015.8mb 69f 65f
7:00 1 2 mph 1015.7mb 69f 65f
6:54  -  1 mph 1015.7mb 69f 65f
6:48  -  2 mph 1015.7mb 69f 65f
6:42 1 2 mph 1015.5mb 68f 65f
6:36 2
mph
1015.4mb 69f 64f
6:30 2
mph
1015.4mb 69f 64f
6:24 2 3 mph 1015.3mb 69f 63f
6:18 3 5 mph 1015.3mb 69f 63f
6:12 3 6 mph 1015.3mb 69f 63f
6:06 5 6 mph 1015.2mb 69f 63f
6:00 3 5 mph 1015.2mb 69f 63f
5:54 5 6 mph 1015.1mb 69f 63f
5:48 3
mph
1015.1mb 68f 63f
5:42 3 6 mph 1015mb 68f 63f
5:36 5 6 mph 1014.9mb 67f 63f
5:30 5 6 mph 1014.8mb 66f 63f
5:24 5 6 mph 1014.6mb 66f 63f
5:18 3 5 mph 1014.6mb 66f 62f
5:12 5
mph
1014.5mb 66f 62f
5:06 3 5 mph 1014.4mb 66f 63f
5:00 2 3 mph 1014.4mb 65f 63f
4:54 3 5 mph 1014.5mb 65f 63f
4:48 2 3 mph 1014.4mb 65f 63f
4:42 2 3 mph 1014.4mb 65f 63f
4:36 2 3 mph 1014.5mb 65f 63f
4:30 3 6 mph 1014.5mb 65f 63f
4:24 5 6 mph 1014.5mb 64f 63f
4:18 5 6 mph 1014.3mb 64f 63f
4:12 3 8 mph 1014.3mb 64f 63f
4:06 6 8 mph 1014.2mb 64f 63f
4:00 6 7 mph 1014.2mb 64f 63f
3:54 5 6 mph 1014.1mb 64f 63f
3:48 5 6 mph 1014mb 64f 63f
3:42 3 6 mph 1014mb 64f 63f
3:36 5 7 mph 1014mb 64f 63f
3:30 5 7 mph 1014mb 64f 63f
3:24 6 7 mph 1014.2mb 64f 63f
3:18 5 6 mph 1014.4mb 64f 63f
3:12 6 8 mph 1014.4mb 64f 63f
3:06 7 9 mph 1014.3mb 64f 63f
3:00 7 8 mph 1014.3mb 64f 63f
2:54 5 8 mph 1014.3mb 64f 63f
2:48 7 10 mph 1014.4mb 64f 63f
2:42 8 10 mph 1014.4mb 64f 63f
2:36 8 9 mph 1014.4mb 65f 63f
2:30 8 10 mph 1014.4mb 65f 63f
2:24 8 11 mph 1014.3mb 65f 63f
2:18 9 10 mph 1014.3mb 65f 63f
2:12 9 11 mph 1014.2mb 65f 63f
2:06 8 10 mph 1014.2mb 65f 63f
2:00 9 10 mph 1014.2mb 65f 63f
1:54 8 9 mph 1014.2mb 66f 63f
1:48 6 9 mph 1014.1mb 66f 63f
1:42 8 10 mph 1014.1mb 66f 63f
1:36 9 11 mph 1014.1mb 66f 63f
1:30 9 11 mph 1014.2mb 66f 63f
1:24 10 13 mph 1014.2mb 67f 63f
1:18 8 13 mph 1014.2mb 67f 63f
1:12 11 14 mph 1014.2mb 66f 63f
1:06 11 14 mph 1014.2mb 66f 63f
1:00 9 11 mph 1014.2mb 66f 63f
12:54 9 11 mph 1014.3mb 67f 63f
12:48 9 11 mph 1014.4mb 67f 63f
12:42 9 11 mph 1014.4mb 67f 63f
12:36 10 14 mph 1014.5mb 68f 63f
12:30 10 13 mph 1014.5mb 68f 63f
12:24 9 14 mph 1014.5mb 69f 64f
12:18 9 11 mph 1014.5mb 69f 64f
12:12 7 11 mph 1014.4mb 69f 64f
12:06 10 13 mph 1014.5mb 69f 64f
12:00 11 13 mph 1014.6mb 69f 64f
ven. 06/26 11:54 9 11 mph 1014.6mb 69f 64f
11:48 9 10 mph 1014.6mb 69f 64f
11:42 8 9 mph 1014.7mb 69f 64f
11:36 7 9 mph 1014.6mb 69f 64f
11:30 7 8 mph 1014.6mb 69f 64f
11:24 6 7 mph 1014.6mb 69f 64f
11:18 5 7 mph 1014.5mb 70f 65f
11:12 3 5 mph 1014.5mb 69f 65f
11:06 3 5 mph 1014.5mb 70f 65f
11:00 2 5 mph 1014.5mb 70f 65f
10:54 2 3 mph 1014.5mb 70f 65f
10:48 2 5 mph 1014.5mb 71f 65f
10:42 3 7 mph 1014.5mb 71f 65f
10:36 5 7 mph 1014.4mb 71f 65f
10:30 7 8 mph 1014.4mb 71f 65f
10:24 7 8 mph 1014.4mb 71f 65f
10:18 6 9 mph 1014.3mb 71f 65f
10:12 7 10 mph 1014.4mb 71f 65f
10:06 9 13 mph 1014.4mb 71f 65f
10:00 11 15 mph 1014.2mb 71f 65f
9:54 15 16 mph 1014.2mb 71f 65f
9:48 13 15 mph 1014.1mb 71f 65f
9:42 14 15 mph 1014.1mb 71f 65f
9:36 15 16 mph 1014.1mb 71f 65f
9:30 15 16 mph 1014mb 71f 64f
9:24 15 17 mph 1014mb 71f 64f
9:18 14 16 mph 1014mb 71f 64f
9:12 15 16 mph 1013.9mb 71f 64f
9:06 14 17 mph 1013.9mb 71f 64f
9:00 15 16 mph 1013.8mb 71f 64f
8:54 14 16 mph 1013.8mb 71f 64f
8:48 15 16 mph 1013.7mb 71f 64f
8:42 15
mph
1013.8mb 71f 64f
8:36 15 16 mph 1013.7mb 71f 64f
8:30 15 17 mph 1013.7mb 71f 64f
8:24 14 16 mph 1013.8mb 71f 64f
8:18 14 15 mph 1013.8mb 71f 64f
8:12 14
mph
1013.8mb 71f 64f